sensor_id;sensor_type;location;lat;lon;timestamp;P1;durP1;ratioP1;P2;durP2;ratioP2
17947;SDS011;9099;47.958;11.366;2023-05-07T00:02:25;4.68;;;4.28;;
17947;SDS011;9099;47.958;11.366;2023-05-07T00:04:52;4.93;;;4.28;;
17947;SDS011;9099;47.958;11.366;2023-05-07T00:07:18;4.45;;;4.15;;
17947;SDS011;9099;47.958;11.366;2023-05-07T00:09:45;4.82;;;4.43;;
17947;SDS011;9099;47.958;11.366;2023-05-07T00:12:12;4.10;;;3.80;;
17947;SDS011;9099;47.958;11.366;2023-05-07T00:14:39;4.47;;;4.07;;
17947;SDS011;9099;47.958;11.366;2023-05-07T00:17:07;4.50;;;4.10;;
17947;SDS011;9099;47.958;11.366;2023-05-07T00:19:34;4.28;;;3.97;;
17947;SDS011;9099;47.958;11.366;2023-05-07T00:22:01;4.25;;;3.85;;
17947;SDS011;9099;47.958;11.366;2023-05-07T00:24:28;4.13;;;3.83;;
17947;SDS011;9099;47.958;11.366;2023-05-07T00:26:54;4.07;;;3.78;;
17947;SDS011;9099;47.958;11.366;2023-05-07T00:29:23;4.13;;;3.83;;
17947;SDS011;9099;47.958;11.366;2023-05-07T00:31:50;3.78;;;3.47;;
17947;SDS011;9099;47.958;11.366;2023-05-07T00:34:20;3.50;;;3.20;;
17947;SDS011;9099;47.958;11.366;2023-05-07T00:36:47;3.72;;;3.45;;
17947;SDS011;9099;47.958;11.366;2023-05-07T00:39:14;3.83;;;3.53;;
17947;SDS011;9099;47.958;11.366;2023-05-07T00:41:41;4.10;;;3.67;;
17947;SDS011;9099;47.958;11.366;2023-05-07T00:44:07;4.25;;;3.95;;
17947;SDS011;9099;47.958;11.366;2023-05-07T00:46:34;3.63;;;3.33;;
17947;SDS011;9099;47.958;11.366;2023-05-07T00:49:01;4.40;;;3.97;;
17947;SDS011;9099;47.958;11.366;2023-05-07T00:51:30;3.60;;;3.40;;
17947;SDS011;9099;47.958;11.366;2023-05-07T00:53:59;3.63;;;3.42;;
17947;SDS011;9099;47.958;11.366;2023-05-07T00:56:27;3.45;;;3.25;;
17947;SDS011;9099;47.958;11.366;2023-05-07T00:58:54;3.60;;;3.30;;
17947;SDS011;9099;47.958;11.366;2023-05-07T01:01:21;3.58;;;3.28;;
17947;SDS011;9099;47.958;11.366;2023-05-07T01:03:48;3.22;;;3.03;;
17947;SDS011;9099;47.958;11.366;2023-05-07T01:06:15;3.78;;;3.47;;
17947;SDS011;9099;47.958;11.366;2023-05-07T01:08:44;3.30;;;2.92;;
17947;SDS011;9099;47.958;11.366;2023-05-07T01:11:11;3.40;;;3.10;;
17947;SDS011;9099;47.958;11.366;2023-05-07T01:13:39;2.80;;;2.60;;
17947;SDS011;9099;47.958;11.366;2023-05-07T01:16:08;2.97;;;2.78;;
17947;SDS011;9099;47.958;11.366;2023-05-07T01:18:35;2.75;;;2.63;;
17947;SDS011;9099;47.958;11.366;2023-05-07T01:21:03;3.00;;;2.80;;
17947;SDS011;9099;47.958;11.366;2023-05-07T01:23:32;4.50;;;2.80;;
17947;SDS011;9099;47.958;11.366;2023-05-07T01:26:00;3.42;;;3.13;;
17947;SDS011;9099;47.958;11.366;2023-05-07T01:28:27;3.00;;;2.80;;
17947;SDS011;9099;47.958;11.366;2023-05-07T01:30:54;2.80;;;2.60;;
17947;SDS011;9099;47.958;11.366;2023-05-07T01:33:29;3.13;;;2.80;;
17947;SDS011;9099;47.958;11.366;2023-05-07T01:35:59;2.78;;;2.67;;
17947;SDS011;9099;47.958;11.366;2023-05-07T01:38:28;3.25;;;3.05;;
17947;SDS011;9099;47.958;11.366;2023-05-07T01:40:57;3.03;;;2.80;;
17947;SDS011;9099;47.958;11.366;2023-05-07T01:43:24;3.00;;;2.80;;
17947;SDS011;9099;47.958;11.366;2023-05-07T01:45:51;3.05;;;2.78;;
17947;SDS011;9099;47.958;11.366;2023-05-07T01:48:19;2.90;;;2.75;;
17947;SDS011;9099;47.958;11.366;2023-05-07T01:50:47;2.83;;;2.63;;
17947;SDS011;9099;47.958;11.366;2023-05-07T01:53:14;3.35;;;2.80;;
17947;SDS011;9099;47.958;11.366;2023-05-07T01:55:41;2.90;;;2.70;;
17947;SDS011;9099;47.958;11.366;2023-05-07T01:58:09;2.67;;;2.58;;
17947;SDS011;9099;47.958;11.366;2023-05-07T02:00:36;2.47;;;2.30;;
17947;SDS011;9099;47.958;11.366;2023-05-07T02:03:03;2.60;;;2.40;;
17947;SDS011;9099;47.958;11.366;2023-05-07T02:05:30;2.60;;;2.42;;
17947;SDS011;9099;47.958;11.366;2023-05-07T02:07:57;2.40;;;2.30;;
17947;SDS011;9099;47.958;11.366;2023-05-07T02:10:24;2.95;;;2.72;;
17947;SDS011;9099;47.958;11.366;2023-05-07T02:12:50;2.72;;;2.63;;
17947;SDS011;9099;47.958;11.366;2023-05-07T02:15:19;2.70;;;2.58;;
17947;SDS011;9099;47.958;11.366;2023-05-07T02:17:58;2.75;;;2.55;;
17947;SDS011;9099;47.958;11.366;2023-05-07T02:20:26;2.53;;;2.40;;
17947;SDS011;9099;47.958;11.366;2023-05-07T02:22:53;4.03;;;2.35;;
17947;SDS011;9099;47.958;11.366;2023-05-07T02:25:20;2.78;;;2.67;;
17947;SDS011;9099;47.958;11.366;2023-05-07T02:27:46;2.15;;;2.05;;
17947;SDS011;9099;47.958;11.366;2023-05-07T02:30:13;2.35;;;2.13;;
17947;SDS011;9099;47.958;11.366;2023-05-07T02:32:42;2.60;;;2.40;;
17947;SDS011;9099;47.958;11.366;2023-05-07T02:35:09;2.60;;;2.33;;
17947;SDS011;9099;47.958;11.366;2023-05-07T02:37:36;2.22;;;2.13;;
17947;SDS011;9099;47.958;11.366;2023-05-07T02:40:03;2.30;;;2.20;;
17947;SDS011;9099;47.958;11.366;2023-05-07T02:42:30;2.08;;;1.98;;
17947;SDS011;9099;47.958;11.366;2023-05-07T02:44:57;2.25;;;2.15;;
17947;SDS011;9099;47.958;11.366;2023-05-07T02:47:24;2.35;;;2.15;;
17947;SDS011;9099;47.958;11.366;2023-05-07T02:49:55;2.42;;;2.03;;
17947;SDS011;9099;47.958;11.366;2023-05-07T02:52:22;2.42;;;2.20;;
17947;SDS011;9099;47.958;11.366;2023-05-07T02:54:48;1.73;;;1.65;;
17947;SDS011;9099;47.958;11.366;2023-05-07T02:57:15;1.90;;;1.80;;
17947;SDS011;9099;47.958;11.366;2023-05-07T02:59:42;2.33;;;2.13;;
17947;SDS011;9099;47.958;11.366;2023-05-07T03:02:09;2.22;;;2.13;;
17947;SDS011;9099;47.958;11.366;2023-05-07T03:04:36;2.42;;;2.20;;
17947;SDS011;9099;47.958;11.366;2023-05-07T03:07:04;1.80;;;1.70;;
17947;SDS011;9099;47.958;11.366;2023-05-07T03:09:31;2.17;;;2.00;;
17947;SDS011;9099;47.958;11.366;2023-05-07T03:11:58;3.25;;;1.80;;
17947;SDS011;9099;47.958;11.366;2023-05-07T03:14:24;2.00;;;1.90;;
17947;SDS011;9099;47.958;11.366;2023-05-07T03:16:51;1.90;;;1.80;;
17947;SDS011;9099;47.958;11.366;2023-05-07T03:19:18;2.17;;;2.05;;
17947;SDS011;9099;47.958;11.366;2023-05-07T03:21:45;2.35;;;2.17;;
17947;SDS011;9099;47.958;11.366;2023-05-07T03:24:13;2.70;;;2.50;;
17947;SDS011;9099;47.958;11.366;2023-05-07T03:26:40;2.60;;;2.40;;
17947;SDS011;9099;47.958;11.366;2023-05-07T03:29:07;2.50;;;2.30;;
17947;SDS011;9099;47.958;11.366;2023-05-07T03:31:34;2.30;;;2.20;;
17947;SDS011;9099;47.958;11.366;2023-05-07T03:34:00;2.65;;;2.00;;
17947;SDS011;9099;47.958;11.366;2023-05-07T03:36:27;2.22;;;2.10;;
17947;SDS011;9099;47.958;11.366;2023-05-07T03:38:54;3.03;;;2.22;;
17947;SDS011;9099;47.958;11.366;2023-05-07T03:41:24;2.55;;;2.35;;
17947;SDS011;9099;47.958;11.366;2023-05-07T03:43:51;2.85;;;2.65;;
17947;SDS011;9099;47.958;11.366;2023-05-07T03:46:18;1.98;;;1.88;;
17947;SDS011;9099;47.958;11.366;2023-05-07T03:48:45;1.90;;;1.80;;
17947;SDS011;9099;47.958;11.366;2023-05-07T03:51:12;1.90;;;1.80;;
17947;SDS011;9099;47.958;11.366;2023-05-07T03:53:39;2.05;;;1.95;;
17947;SDS011;9099;47.958;11.366;2023-05-07T03:56:05;1.80;;;1.70;;
17947;SDS011;9099;47.958;11.366;2023-05-07T03:58:34;2.10;;;2.00;;
17947;SDS011;9099;47.958;11.366;2023-05-07T04:01:00;2.40;;;2.00;;
17947;SDS011;9099;47.958;11.366;2023-05-07T04:03:27;2.13;;;2.03;;
17947;SDS011;9099;47.958;11.366;2023-05-07T04:05:55;3.08;;;2.28;;
17947;SDS011;9099;47.958;11.366;2023-05-07T04:08:22;2.13;;;1.98;;
17947;SDS011;9099;47.958;11.366;2023-05-07T04:10:53;2.78;;;2.58;;
17947;SDS011;9099;47.958;11.366;2023-05-07T04:13:21;2.72;;;2.53;;
17947;SDS011;9099;47.958;11.366;2023-05-07T04:15:49;2.55;;;2.35;;
17947;SDS011;9099;47.958;11.366;2023-05-07T04:18:15;2.10;;;2.00;;
17947;SDS011;9099;47.958;11.366;2023-05-07T04:20:42;1.80;;;1.70;;
17947;SDS011;9099;47.958;11.366;2023-05-07T04:23:09;2.42;;;2.22;;
17947;SDS011;9099;47.958;11.366;2023-05-07T04:25:36;2.28;;;2.17;;
17947;SDS011;9099;47.958;11.366;2023-05-07T04:28:03;2.75;;;2.55;;
17947;SDS011;9099;47.958;11.366;2023-05-07T04:30:31;2.40;;;2.20;;
17947;SDS011;9099;47.958;11.366;2023-05-07T04:32:59;3.45;;;2.58;;
17947;SDS011;9099;47.958;11.366;2023-05-07T04:35:26;2.40;;;2.30;;
17947;SDS011;9099;47.958;11.366;2023-05-07T04:37:52;2.70;;;2.55;;
17947;SDS011;9099;47.958;11.366;2023-05-07T04:40:19;3.10;;;2.90;;
17947;SDS011;9099;47.958;11.366;2023-05-07T04:42:46;3.00;;;2.80;;
17947;SDS011;9099;47.958;11.366;2023-05-07T04:45:13;2.60;;;2.47;;
17947;SDS011;9099;47.958;11.366;2023-05-07T04:47:40;2.70;;;2.50;;
17947;SDS011;9099;47.958;11.366;2023-05-07T04:50:09;2.60;;;2.40;;
17947;SDS011;9099;47.958;11.366;2023-05-07T04:52:36;2.53;;;2.33;;
17947;SDS011;9099;47.958;11.366;2023-05-07T04:55:18;2.67;;;2.47;;
17947;SDS011;9099;47.958;11.366;2023-05-07T04:57:45;2.50;;;2.40;;
17947;SDS011;9099;47.958;11.366;2023-05-07T05:00:12;2.67;;;2.47;;
17947;SDS011;9099;47.958;11.366;2023-05-07T05:02:40;2.50;;;2.30;;
17947;SDS011;9099;47.958;11.366;2023-05-07T05:05:08;5.38;;;2.85;;
17947;SDS011;9099;47.958;11.366;2023-05-07T05:07:36;3.15;;;2.70;;
17947;SDS011;9099;47.958;11.366;2023-05-07T05:10:04;2.72;;;2.53;;
17947;SDS011;9099;47.958;11.366;2023-05-07T05:12:32;2.75;;;2.55;;
17947;SDS011;9099;47.958;11.366;2023-05-07T05:14:59;2.92;;;2.28;;
17947;SDS011;9099;47.958;11.366;2023-05-07T05:17:25;2.88;;;2.47;;
17947;SDS011;9099;47.958;11.366;2023-05-07T05:19:52;2.38;;;2.28;;
17947;SDS011;9099;47.958;11.366;2023-05-07T05:22:20;2.47;;;2.20;;
17947;SDS011;9099;47.958;11.366;2023-05-07T05:24:47;2.47;;;1.98;;
17947;SDS011;9099;47.958;11.366;2023-05-07T05:27:14;2.50;;;2.30;;
17947;SDS011;9099;47.958;11.366;2023-05-07T05:29:41;1.92;;;1.83;;
17947;SDS011;9099;47.958;11.366;2023-05-07T05:32:08;2.20;;;2.10;;
17947;SDS011;9099;47.958;11.366;2023-05-07T05:34:35;2.30;;;2.17;;
17947;SDS011;9099;47.958;11.366;2023-05-07T05:37:02;2.22;;;2.03;;
17947;SDS011;9099;47.958;11.366;2023-05-07T05:39:30;1.80;;;1.75;;
17947;SDS011;9099;47.958;11.366;2023-05-07T05:41:57;2.00;;;1.90;;
17947;SDS011;9099;47.958;11.366;2023-05-07T05:44:23;1.73;;;1.63;;
17947;SDS011;9099;47.958;11.366;2023-05-07T05:46:51;1.70;;;1.60;;
17947;SDS011;9099;47.958;11.366;2023-05-07T05:49:20;1.60;;;1.50;;
17947;SDS011;9099;47.958;11.366;2023-05-07T05:51:47;1.70;;;1.60;;
17947;SDS011;9099;47.958;11.366;2023-05-07T05:54:13;1.42;;;1.42;;
17947;SDS011;9099;47.958;11.366;2023-05-07T05:56:42;2.55;;;1.70;;
17947;SDS011;9099;47.958;11.366;2023-05-07T05:59:09;2.78;;;1.95;;
17947;SDS011;9099;47.958;11.366;2023-05-07T06:01:36;2.35;;;1.90;;
17947;SDS011;9099;47.958;11.366;2023-05-07T06:04:03;2.20;;;2.10;;
17947;SDS011;9099;47.958;11.366;2023-05-07T06:06:30;2.10;;;1.90;;
17947;SDS011;9099;47.958;11.366;2023-05-07T06:08:57;2.03;;;1.92;;
17947;SDS011;9099;47.958;11.366;2023-05-07T06:11:24;2.25;;;2.05;;
17947;SDS011;9099;47.958;11.366;2023-05-07T06:13:52;1.90;;;1.80;;
17947;SDS011;9099;47.958;11.366;2023-05-07T06:16:19;2.08;;;1.98;;
17947;SDS011;9099;47.958;11.366;2023-05-07T06:18:46;1.83;;;1.73;;
17947;SDS011;9099;47.958;11.366;2023-05-07T06:21:13;1.83;;;1.73;;
17947;SDS011;9099;47.958;11.366;2023-05-07T06:23:40;2.05;;;1.95;;
17947;SDS011;9099;47.958;11.366;2023-05-07T06:26:07;3.17;;;2.28;;
17947;SDS011;9099;47.958;11.366;2023-05-07T06:28:34;2.47;;;2.28;;
17947;SDS011;9099;47.958;11.366;2023-05-07T06:31:12;2.50;;;2.30;;
17947;SDS011;9099;47.958;11.366;2023-05-07T06:33:40;2.30;;;2.03;;
17947;SDS011;9099;47.958;11.366;2023-05-07T06:36:07;2.20;;;1.80;;
17947;SDS011;9099;47.958;11.366;2023-05-07T06:38:35;2.15;;;2.00;;
17947;SDS011;9099;47.958;11.366;2023-05-07T06:41:01;1.88;;;1.77;;
17947;SDS011;9099;47.958;11.366;2023-05-07T06:43:28;1.80;;;1.70;;
17947;SDS011;9099;47.958;11.366;2023-05-07T06:45:55;5.35;;;1.92;;
17947;SDS011;9099;47.958;11.366;2023-05-07T06:48:23;1.80;;;1.70;;
17947;SDS011;9099;47.958;11.366;2023-05-07T06:50:50;2.75;;;1.88;;
17947;SDS011;9099;47.958;11.366;2023-05-07T06:53:18;2.08;;;1.98;;
17947;SDS011;9099;47.958;11.366;2023-05-07T06:55:45;2.13;;;1.77;;
17947;SDS011;9099;47.958;11.366;2023-05-07T06:58:12;2.10;;;1.80;;
17947;SDS011;9099;47.958;11.366;2023-05-07T07:00:38;2.20;;;2.08;;
17947;SDS011;9099;47.958;11.366;2023-05-07T07:03:05;2.05;;;1.80;;
17947;SDS011;9099;47.958;11.366;2023-05-07T07:05:34;2.10;;;1.90;;
17947;SDS011;9099;47.958;11.366;2023-05-07T07:08:01;1.80;;;1.70;;
17947;SDS011;9099;47.958;11.366;2023-05-07T07:10:28;1.80;;;1.70;;
17947;SDS011;9099;47.958;11.366;2023-05-07T07:12:55;4.32;;;2.00;;
17947;SDS011;9099;47.958;11.366;2023-05-07T07:15:21;2.45;;;1.95;;
17947;SDS011;9099;47.958;11.366;2023-05-07T07:17:50;1.88;;;1.77;;
17947;SDS011;9099;47.958;11.366;2023-05-07T07:20:17;2.50;;;1.50;;
17947;SDS011;9099;47.958;11.366;2023-05-07T07:22:45;2.75;;;1.85;;
17947;SDS011;9099;47.958;11.366;2023-05-07T07:25:12;1.80;;;1.70;;
17947;SDS011;9099;47.958;11.366;2023-05-07T07:27:39;2.35;;;2.03;;
17947;SDS011;9099;47.958;11.366;2023-05-07T07:30:06;2.40;;;1.73;;
17947;SDS011;9099;47.958;11.366;2023-05-07T07:32:33;3.58;;;1.70;;
17947;SDS011;9099;47.958;11.366;2023-05-07T07:35:00;2.08;;;1.67;;
17947;SDS011;9099;47.958;11.366;2023-05-07T07:37:27;2.30;;;2.10;;
17947;SDS011;9099;47.958;11.366;2023-05-07T07:39:56;2.30;;;1.85;;
17947;SDS011;9099;47.958;11.366;2023-05-07T07:42:23;2.63;;;2.00;;
17947;SDS011;9099;47.958;11.366;2023-05-07T07:44:49;2.80;;;1.80;;
17947;SDS011;9099;47.958;11.366;2023-05-07T07:47:16;1.42;;;1.40;;
17947;SDS011;9099;47.958;11.366;2023-05-07T07:49:43;1.80;;;1.70;;
17947;SDS011;9099;47.958;11.366;2023-05-07T07:52:10;1.73;;;1.63;;
17947;SDS011;9099;47.958;11.366;2023-05-07T07:54:37;1.60;;;1.50;;
17947;SDS011;9099;47.958;11.366;2023-05-07T07:57:05;2.55;;;1.63;;
17947;SDS011;9099;47.958;11.366;2023-05-07T07:59:32;1.60;;;1.50;;
17947;SDS011;9099;47.958;11.366;2023-05-07T08:01:59;1.42;;;1.33;;
17947;SDS011;9099;47.958;11.366;2023-05-07T08:04:25;1.60;;;1.50;;
17947;SDS011;9099;47.958;11.366;2023-05-07T08:06:52;1.63;;;1.42;;
17947;SDS011;9099;47.958;11.366;2023-05-07T08:09:21;2.35;;;1.30;;
17947;SDS011;9099;47.958;11.366;2023-05-07T08:11:47;2.45;;;1.73;;
17947;SDS011;9099;47.958;11.366;2023-05-07T08:14:16;1.63;;;1.52;;
17947;SDS011;9099;47.958;11.366;2023-05-07T08:16:43;1.42;;;1.35;;
17947;SDS011;9099;47.958;11.366;2023-05-07T08:19:09;1.63;;;1.52;;
17947;SDS011;9099;47.958;11.366;2023-05-07T08:21:38;1.52;;;1.30;;
17947;SDS011;9099;47.958;11.366;2023-05-07T08:24:06;1.33;;;1.23;;
17947;SDS011;9099;47.958;11.366;2023-05-07T08:26:32;1.58;;;1.48;;
17947;SDS011;9099;47.958;11.366;2023-05-07T08:29:00;1.50;;;1.40;;
17947;SDS011;9099;47.958;11.366;2023-05-07T08:31:29;1.83;;;1.70;;
17947;SDS011;9099;47.958;11.366;2023-05-07T08:33:55;1.83;;;1.25;;
17947;SDS011;9099;47.958;11.366;2023-05-07T08:36:23;2.05;;;1.42;;
17947;SDS011;9099;47.958;11.366;2023-05-07T08:38:50;4.22;;;1.50;;
17947;SDS011;9099;47.958;11.366;2023-05-07T08:41:17;1.77;;;1.35;;
17947;SDS011;9099;47.958;11.366;2023-05-07T08:43:46;1.52;;;1.42;;
17947;SDS011;9099;47.958;11.366;2023-05-07T08:46:16;1.63;;;1.20;;
17947;SDS011;9099;47.958;11.366;2023-05-07T08:48:46;1.60;;;1.50;;
17947;SDS011;9099;47.958;11.366;2023-05-07T08:51:15;1.50;;;1.40;;
17947;SDS011;9099;47.958;11.366;2023-05-07T08:53:43;1.50;;;1.40;;
17947;SDS011;9099;47.958;11.366;2023-05-07T08:56:11;1.45;;;1.30;;
17947;SDS011;9099;47.958;11.366;2023-05-07T08:58:40;2.38;;;1.30;;
17947;SDS011;9099;47.958;11.366;2023-05-07T09:01:07;1.30;;;1.20;;
17947;SDS011;9099;47.958;11.366;2023-05-07T09:03:36;1.40;;;1.30;;
17947;SDS011;9099;47.958;11.366;2023-05-07T09:06:05;1.60;;;1.50;;
17947;SDS011;9099;47.958;11.366;2023-05-07T09:08:32;1.40;;;1.30;;
17947;SDS011;9099;47.958;11.366;2023-05-07T09:11:00;1.20;;;1.20;;
17947;SDS011;9099;47.958;11.366;2023-05-07T09:13:28;1.40;;;1.30;;
17947;SDS011;9099;47.958;11.366;2023-05-07T09:15:55;2.60;;;1.30;;
17947;SDS011;9099;47.958;11.366;2023-05-07T09:18:23;1.05;;;1.05;;
17947;SDS011;9099;47.958;11.366;2023-05-07T09:20:50;1.38;;;1.27;;
17947;SDS011;9099;47.958;11.366;2023-05-07T09:23:18;1.20;;;1.20;;
17947;SDS011;9099;47.958;11.366;2023-05-07T09:25:46;1.20;;;1.20;;
17947;SDS011;9099;47.958;11.366;2023-05-07T09:28:13;1.50;;;1.40;;
17947;SDS011;9099;47.958;11.366;2023-05-07T09:30:40;1.20;;;1.10;;
17947;SDS011;9099;47.958;11.366;2023-05-07T09:33:06;1.88;;;1.35;;
17947;SDS011;9099;47.958;11.366;2023-05-07T09:35:33;1.30;;;1.20;;
17947;SDS011;9099;47.958;11.366;2023-05-07T09:38:00;1.30;;;1.20;;
17947;SDS011;9099;47.958;11.366;2023-05-07T09:40:29;1.23;;;1.13;;
17947;SDS011;9099;47.958;11.366;2023-05-07T09:43:07;1.20;;;1.20;;
17947;SDS011;9099;47.958;11.366;2023-05-07T09:45:35;1.65;;;1.40;;
17947;SDS011;9099;47.958;11.366;2023-05-07T09:48:04;1.23;;;1.10;;
17947;SDS011;9099;47.958;11.366;2023-05-07T09:50:32;1.73;;;1.50;;
17947;SDS011;9099;47.958;11.366;2023-05-07T09:53:03;1.55;;;1.27;;
17947;SDS011;9099;47.958;11.366;2023-05-07T09:55:31;1.30;;;1.20;;
17947;SDS011;9099;47.958;11.366;2023-05-07T09:57:58;1.40;;;1.30;;
17947;SDS011;9099;47.958;11.366;2023-05-07T10:00:27;1.38;;;1.35;;
17947;SDS011;9099;47.958;11.366;2023-05-07T10:02:55;1.73;;;1.45;;
17947;SDS011;9099;47.958;11.366;2023-05-07T10:05:23;1.40;;;1.30;;
17947;SDS011;9099;47.958;11.366;2023-05-07T10:07:51;1.30;;;1.20;;
17947;SDS011;9099;47.958;11.366;2023-05-07T10:10:19;1.10;;;1.10;;
17947;SDS011;9099;47.958;11.366;2023-05-07T10:12:48;3.03;;;1.17;;
17947;SDS011;9099;47.958;11.366;2023-05-07T10:15:16;3.15;;;1.33;;
17947;SDS011;9099;47.958;11.366;2023-05-07T10:17:43;3.50;;;1.45;;
17947;SDS011;9099;47.958;11.366;2023-05-07T10:20:11;2.47;;;1.40;;
17947;SDS011;9099;47.958;11.366;2023-05-07T10:22:38;1.20;;;1.20;;
17947;SDS011;9099;47.958;11.366;2023-05-07T10:25:09;1.60;;;1.50;;
17947;SDS011;9099;47.958;11.366;2023-05-07T10:27:42;1.63;;;1.27;;
17947;SDS011;9099;47.958;11.366;2023-05-07T10:30:15;1.42;;;1.23;;
17947;SDS011;9099;47.958;11.366;2023-05-07T10:32:49;1.80;;;1.20;;
17947;SDS011;9099;47.958;11.366;2023-05-07T10:35:17;1.25;;;1.25;;
17947;SDS011;9099;47.958;11.366;2023-05-07T10:37:47;1.25;;;1.15;;
17947;SDS011;9099;47.958;11.366;2023-05-07T10:40:15;1.05;;;1.05;;
17947;SDS011;9099;47.958;11.366;2023-05-07T10:45:27;1.60;;;1.30;;
17947;SDS011;9099;47.958;11.366;2023-05-07T10:48:07;1.88;;;1.20;;
17947;SDS011;9099;47.958;11.366;2023-05-07T10:50:35;1.27;;;1.20;;
17947;SDS011;9099;47.958;11.366;2023-05-07T10:58:54;1.10;;;1.10;;
17947;SDS011;9099;47.958;11.366;2023-05-07T11:04:24;1.10;;;1.10;;
17947;SDS011;9099;47.958;11.366;2023-05-07T11:09:57;1.83;;;1.15;;
17947;SDS011;9099;47.958;11.366;2023-05-07T11:15:41;1.38;;;1.27;;
17947;SDS011;9099;47.958;11.366;2023-05-07T11:18:11;1.80;;;1.30;;
17947;SDS011;9099;47.958;11.366;2023-05-07T11:20:49;1.50;;;1.40;;
17947;SDS011;9099;47.958;11.366;2023-05-07T11:26:43;1.80;;;1.40;;
17947;SDS011;9099;47.958;11.366;2023-05-07T11:29:14;1.50;;;1.40;;
17947;SDS011;9099;47.958;11.366;2023-05-07T11:31:42;1.98;;;1.30;;
17947;SDS011;9099;47.958;11.366;2023-05-07T11:34:11;1.33;;;1.20;;
17947;SDS011;9099;47.958;11.366;2023-05-07T11:36:42;1.77;;;1.33;;
17947;SDS011;9099;47.958;11.366;2023-05-07T11:39:28;1.98;;;1.40;;
17947;SDS011;9099;47.958;11.366;2023-05-07T11:41:56;1.30;;;1.20;;
17947;SDS011;9099;47.958;11.366;2023-05-07T11:44:23;1.30;;;1.00;;
17947;SDS011;9099;47.958;11.366;2023-05-07T11:46:50;1.60;;;1.50;;
17947;SDS011;9099;47.958;11.366;2023-05-07T11:49:19;1.15;;;1.08;;
17947;SDS011;9099;47.958;11.366;2023-05-07T11:51:46;1.23;;;1.13;;
17947;SDS011;9099;47.958;11.366;2023-05-07T11:54:15;2.03;;;1.40;;
17947;SDS011;9099;47.958;11.366;2023-05-07T11:56:43;1.80;;;1.20;;
17947;SDS011;9099;47.958;11.366;2023-05-07T11:59:12;1.27;;;1.27;;
17947;SDS011;9099;47.958;11.366;2023-05-07T12:01:44;1.23;;;1.13;;
17947;SDS011;9099;47.958;11.366;2023-05-07T12:04:12;1.50;;;1.40;;
17947;SDS011;9099;47.958;11.366;2023-05-07T12:06:40;1.48;;;1.38;;
17947;SDS011;9099;47.958;11.366;2023-05-07T12:09:07;1.10;;;1.10;;
17947;SDS011;9099;47.958;11.366;2023-05-07T12:11:36;1.58;;;1.35;;
17947;SDS011;9099;47.958;11.366;2023-05-07T12:14:04;1.67;;;1.33;;
17947;SDS011;9099;47.958;11.366;2023-05-07T12:16:31;3.58;;;1.45;;
17947;SDS011;9099;47.958;11.366;2023-05-07T12:18:59;1.60;;;1.50;;
17947;SDS011;9099;47.958;11.366;2023-05-07T12:21:26;1.52;;;1.40;;
17947;SDS011;9099;47.958;11.366;2023-05-07T12:23:54;1.20;;;1.20;;
17947;SDS011;9099;47.958;11.366;2023-05-07T12:26:22;1.30;;;1.30;;
17947;SDS011;9099;47.958;11.366;2023-05-07T12:28:49;1.27;;;1.17;;
17947;SDS011;9099;47.958;11.366;2023-05-07T12:31:16;1.40;;;1.30;;
17947;SDS011;9099;47.958;11.366;2023-05-07T12:33:43;1.17;;;1.08;;
17947;SDS011;9099;47.958;11.366;2023-05-07T12:36:12;1.20;;;1.10;;
17947;SDS011;9099;47.958;11.366;2023-05-07T12:38:39;1.30;;;1.30;;
17947;SDS011;9099;47.958;11.366;2023-05-07T12:41:08;2.42;;;1.25;;
17947;SDS011;9099;47.958;11.366;2023-05-07T12:43:37;1.90;;;1.30;;
17947;SDS011;9099;47.958;11.366;2023-05-07T12:46:04;1.30;;;1.20;;
17947;SDS011;9099;47.958;11.366;2023-05-07T12:48:32;2.75;;;1.23;;
17947;SDS011;9099;47.958;11.366;2023-05-07T12:51:01;1.40;;;1.30;;
17947;SDS011;9099;47.958;11.366;2023-05-07T12:53:29;1.42;;;1.33;;
17947;SDS011;9099;47.958;11.366;2023-05-07T12:55:56;2.17;;;1.40;;
17947;SDS011;9099;47.958;11.366;2023-05-07T12:58:26;1.25;;;1.15;;
17947;SDS011;9099;47.958;11.366;2023-05-07T13:00:54;1.42;;;1.33;;
17947;SDS011;9099;47.958;11.366;2023-05-07T13:03:24;1.70;;;1.58;;
17947;SDS011;9099;47.958;11.366;2023-05-07T13:05:52;1.25;;;1.25;;
17947;SDS011;9099;47.958;11.366;2023-05-07T13:08:24;1.45;;;1.20;;
17947;SDS011;9099;47.958;11.366;2023-05-07T13:10:52;1.45;;;1.20;;
17947;SDS011;9099;47.958;11.366;2023-05-07T13:13:19;1.48;;;1.38;;
17947;SDS011;9099;47.958;11.366;2023-05-07T13:15:47;1.50;;;1.40;;
17947;SDS011;9099;47.958;11.366;2023-05-07T13:18:14;1.60;;;1.50;;
17947;SDS011;9099;47.958;11.366;2023-05-07T13:20:41;1.20;;;1.20;;
17947;SDS011;9099;47.958;11.366;2023-05-07T13:23:08;1.67;;;1.30;;
17947;SDS011;9099;47.958;11.366;2023-05-07T13:25:35;1.50;;;1.40;;
17947;SDS011;9099;47.958;11.366;2023-05-07T13:28:02;1.50;;;1.40;;
17947;SDS011;9099;47.958;11.366;2023-05-07T13:30:29;1.30;;;1.30;;
17947;SDS011;9099;47.958;11.366;2023-05-07T13:32:57;1.63;;;1.35;;
17947;SDS011;9099;47.958;11.366;2023-05-07T13:35:24;1.38;;;1.30;;
17947;SDS011;9099;47.958;11.366;2023-05-07T13:37:51;1.27;;;1.27;;
17947;SDS011;9099;47.958;11.366;2023-05-07T13:40:19;1.70;;;1.30;;
17947;SDS011;9099;47.958;11.366;2023-05-07T13:42:46;1.42;;;1.35;;
17947;SDS011;9099;47.958;11.366;2023-05-07T13:45:13;1.50;;;1.40;;
17947;SDS011;9099;47.958;11.366;2023-05-07T13:47:40;1.50;;;1.40;;
17947;SDS011;9099;47.958;11.366;2023-05-07T13:50:09;1.23;;;1.20;;
17947;SDS011;9099;47.958;11.366;2023-05-07T13:52:38;1.48;;;1.38;;
17947;SDS011;9099;47.958;11.366;2023-05-07T13:55:08;1.30;;;1.20;;
17947;SDS011;9099;47.958;11.366;2023-05-07T13:57:35;1.48;;;1.35;;
17947;SDS011;9099;47.958;11.366;2023-05-07T14:00:02;1.60;;;1.50;;
17947;SDS011;9099;47.958;11.366;2023-05-07T14:02:30;1.55;;;1.45;;
17947;SDS011;9099;47.958;11.366;2023-05-07T14:04:56;1.60;;;1.50;;
17947;SDS011;9099;47.958;11.366;2023-05-07T14:07:25;1.55;;;1.45;;
17947;SDS011;9099;47.958;11.366;2023-05-07T14:09:52;1.40;;;1.13;;
17947;SDS011;9099;47.958;11.366;2023-05-07T14:12:18;1.52;;;1.42;;
17947;SDS011;9099;47.958;11.366;2023-05-07T14:14:45;1.83;;;1.60;;
17947;SDS011;9099;47.958;11.366;2023-05-07T14:17:14;1.80;;;1.60;;
17947;SDS011;9099;47.958;11.366;2023-05-07T14:19:41;1.83;;;1.65;;
17947;SDS011;9099;47.958;11.366;2023-05-07T14:22:08;1.90;;;1.80;;
17947;SDS011;9099;47.958;11.366;2023-05-07T14:24:36;1.80;;;1.70;;
17947;SDS011;9099;47.958;11.366;2023-05-07T14:27:04;2.22;;;1.52;;
17947;SDS011;9099;47.958;11.366;2023-05-07T14:29:31;1.80;;;1.70;;
17947;SDS011;9099;47.958;11.366;2023-05-07T14:32:00;2.17;;;2.00;;
17947;SDS011;9099;47.958;11.366;2023-05-07T14:34:27;2.60;;;1.90;;
17947;SDS011;9099;47.958;11.366;2023-05-07T14:36:54;1.83;;;1.73;;
17947;SDS011;9099;47.958;11.366;2023-05-07T14:39:21;2.10;;;2.00;;
17947;SDS011;9099;47.958;11.366;2023-05-07T14:41:49;1.75;;;1.65;;
17947;SDS011;9099;47.958;11.366;2023-05-07T14:44:16;3.03;;;1.88;;
17947;SDS011;9099;47.958;11.366;2023-05-07T14:46:43;2.75;;;2.00;;
17947;SDS011;9099;47.958;11.366;2023-05-07T14:49:10;1.90;;;1.80;;
17947;SDS011;9099;47.958;11.366;2023-05-07T14:51:42;2.22;;;1.95;;
17947;SDS011;9099;47.958;11.366;2023-05-07T14:54:08;3.15;;;2.00;;
17947;SDS011;9099;47.958;11.366;2023-05-07T14:56:35;1.70;;;1.65;;
17947;SDS011;9099;47.958;11.366;2023-05-07T14:59:04;3.00;;;1.90;;
17947;SDS011;9099;47.958;11.366;2023-05-07T15:01:30;1.63;;;1.50;;
17947;SDS011;9099;47.958;11.366;2023-05-07T15:03:57;1.98;;;1.73;;
17947;SDS011;9099;47.958;11.366;2023-05-07T15:06:25;1.75;;;1.65;;
17947;SDS011;9099;47.958;11.366;2023-05-07T15:08:52;1.85;;;1.55;;
17947;SDS011;9099;47.958;11.366;2023-05-07T15:11:19;1.65;;;1.55;;
17947;SDS011;9099;47.958;11.366;2023-05-07T15:13:46;1.80;;;1.70;;